createdAt,value
2022-12-05T00:01:16.038Z,19.40
2022-12-05T00:03:42.672Z,17.67
2022-12-05T00:06:09.163Z,21.08
2022-12-05T00:08:35.562Z,16.08
2022-12-05T00:11:01.939Z,17.05
2022-12-05T00:13:28.523Z,16.45
2022-12-05T00:15:54.890Z,16.58
2022-12-05T00:18:21.392Z,17.15
2022-12-05T00:20:49.048Z,15.75
2022-12-05T00:23:15.488Z,16.65
2022-12-05T00:25:42.304Z,19.27
2022-12-05T00:28:08.688Z,17.02
2022-12-05T00:30:35.184Z,16.13
2022-12-05T00:33:01.588Z,14.50
2022-12-05T00:35:27.950Z,16.38
2022-12-05T00:37:54.594Z,15.77
2022-12-05T00:40:21.164Z,17.63
2022-12-05T00:42:52.155Z,21.55
2022-12-05T00:45:18.859Z,16.23
2022-12-05T00:47:45.517Z,16.98
2022-12-05T00:50:11.986Z,17.05
2022-12-05T00:52:38.323Z,19.58
2022-12-05T00:55:05.144Z,16.33
2022-12-05T00:57:32.087Z,15.82
2022-12-05T00:59:58.915Z,15.23
2022-12-05T01:02:25.704Z,16.80
2022-12-05T01:04:52.114Z,17.75
2022-12-05T01:07:18.505Z,17.10
2022-12-05T01:09:44.891Z,17.58
2022-12-05T01:12:11.236Z,16.05
2022-12-05T01:14:37.618Z,17.88
2022-12-05T01:17:04.444Z,19.05
2022-12-05T01:19:32.539Z,16.30
2022-12-05T01:21:59.650Z,18.95
2022-12-05T01:24:27.603Z,16.23
2022-12-05T01:26:54.525Z,17.50
2022-12-05T01:29:23.356Z,14.88
2022-12-05T01:31:50.202Z,17.92
2022-12-05T01:34:17.707Z,15.40
2022-12-05T01:36:44.679Z,17.48
2022-12-05T01:39:12.184Z,16.85
2022-12-05T01:41:43.763Z,19.10
2022-12-05T01:44:13.201Z,18.40
2022-12-05T01:46:45.292Z,15.40
2022-12-05T01:49:23.843Z,16.73
2022-12-05T01:51:53.789Z,17.98
2022-12-05T01:54:22.494Z,15.13
2022-12-05T01:56:53.160Z,16.50
2022-12-05T01:59:21.675Z,16.75
2022-12-05T02:01:48.269Z,19.13
2022-12-05T02:04:15.268Z,15.55
2022-12-05T02:06:42.506Z,17.42
2022-12-05T02:09:09.383Z,15.10
2022-12-05T02:11:46.661Z,17.67
2022-12-05T02:14:26.898Z,13.93
2022-12-05T02:17:16.586Z,27.77
2022-12-05T02:20:01.606Z,17.23
2022-12-05T02:23:03.917Z,17.15
2022-12-05T02:25:56.709Z,15.55
2022-12-05T02:28:36.955Z,16.35
2022-12-05T02:31:17.951Z,15.82
2022-12-05T02:34:04.712Z,14.88
2022-12-05T02:36:45.746Z,13.52
2022-12-05T02:39:32.246Z,11.90
2022-12-05T02:42:06.608Z,17.33
2022-12-05T02:44:41.104Z,14.60
2022-12-05T02:47:09.616Z,15.85
2022-12-05T02:49:37.332Z,15.40
2022-12-05T02:52:07.376Z,15.00
2022-12-05T02:54:38.164Z,14.27
2022-12-05T02:57:08.055Z,15.90
2022-12-05T02:59:34.479Z,14.20
2022-12-05T03:02:00.937Z,16.58
2022-12-05T03:04:28.884Z,16.83
2022-12-05T03:07:03.284Z,15.07
2022-12-05T03:09:47.632Z,16.02
2022-12-05T03:12:26.946Z,12.40
2022-12-05T03:15:00.367Z,12.63
2022-12-05T03:17:32.468Z,13.65
2022-12-05T03:20:11.575Z,14.57
2022-12-05T03:22:43.742Z,17.42
2022-12-05T03:25:12.062Z,10.20
2022-12-05T03:28:25.513Z,16.27
2022-12-05T03:30:55.480Z,13.23
2022-12-05T03:33:31.849Z,14.20
2022-12-05T03:36:22.727Z,12.77
2022-12-05T03:39:21.383Z,13.90
2022-12-05T03:42:09.415Z,17.10
2022-12-05T03:44:54.407Z,13.85
2022-12-05T03:48:04.165Z,14.93
2022-12-05T03:50:30.686Z,13.68
2022-12-05T03:53:19.605Z,14.20
2022-12-05T03:55:53.271Z,13.60
2022-12-05T04:01:01.155Z,15.85
2022-12-05T04:03:39.753Z,17.30
2022-12-05T04:06:13.829Z,15.63
2022-12-05T04:09:16.813Z,16.95
2022-12-05T04:11:51.009Z,15.65
2022-12-05T04:14:48.823Z,16.45
2022-12-05T04:17:34.800Z,16.55
2022-12-05T04:20:25.464Z,19.55
2022-12-05T04:22:51.982Z,14.38
2022-12-05T04:25:33.994Z,15.82
2022-12-05T04:28:19.570Z,17.98
2022-12-05T04:31:01.846Z,18.42
2022-12-05T04:33:41.959Z,17.67
2022-12-05T04:36:12.043Z,14.98
2022-12-05T04:38:50.573Z,17.30
2022-12-05T04:41:23.433Z,15.30
2022-12-05T04:43:52.101Z,21.98
2022-12-05T04:46:20.684Z,19.73
2022-12-05T04:48:52.472Z,17.45
2022-12-05T04:51:25.530Z,20.38
2022-12-05T04:56:28.105Z,16.70
2022-12-05T04:58:54.699Z,18.40
2022-12-05T05:01:36.529Z,14.93
2022-12-05T05:04:11.283Z,15.95
2022-12-05T05:06:39.834Z,18.90
2022-12-05T05:09:06.852Z,23.70
2022-12-05T05:11:35.384Z,20.85
2022-12-05T05:14:02.450Z,21.13
2022-12-05T05:16:35.370Z,22.83
2022-12-05T05:21:40.599Z,21.60
2022-12-05T05:24:09.545Z,19.15
2022-12-05T05:26:41.659Z,23.50
2022-12-05T05:29:09.555Z,27.42
2022-12-05T05:31:37.141Z,30.30
2022-12-05T05:34:09.418Z,28.40
2022-12-05T05:36:36.949Z,29.35
2022-12-05T05:39:06.785Z,28.10
2022-12-05T05:41:35.625Z,28.20
2022-12-05T05:44:03.748Z,30.15
2022-12-05T05:46:33.089Z,30.60
2022-12-05T05:48:59.780Z,29.67
2022-12-05T05:51:27.890Z,31.73
2022-12-05T05:53:54.895Z,29.92
2022-12-05T05:56:22.358Z,30.05
2022-12-05T05:58:55.122Z,31.05
2022-12-05T06:01:21.550Z,33.60
2022-12-05T06:03:48.764Z,35.40
2022-12-05T06:06:15.952Z,33.60
2022-12-05T06:08:44.630Z,33.15
2022-12-05T06:11:24.838Z,28.52
2022-12-05T06:13:53.491Z,29.50
2022-12-05T06:16:21.457Z,29.17
2022-12-05T06:18:49.100Z,31.65
2022-12-05T06:21:16.471Z,37.13
2022-12-05T06:23:43.323Z,33.17
2022-12-05T06:26:16.287Z,26.73
2022-12-05T06:31:11.861Z,24.77
2022-12-05T06:33:38.560Z,29.30
2022-12-05T06:36:11.005Z,25.50
2022-12-05T06:38:41.736Z,28.70
2022-12-05T06:41:11.788Z,31.42
2022-12-05T06:43:38.191Z,27.50
2022-12-05T06:46:06.162Z,28.08
2022-12-05T06:48:32.878Z,26.02
2022-12-05T06:50:59.388Z,25.95
2022-12-05T06:53:26.158Z,25.92
2022-12-05T06:56:01.489Z,26.63
2022-12-05T06:58:28.817Z,25.45
2022-12-05T07:01:14.330Z,26.33
2022-12-05T07:03:41.046Z,27.17
2022-12-05T07:06:07.963Z,24.25
2022-12-05T07:08:34.893Z,29.13
2022-12-05T07:11:02.893Z,31.45
2022-12-05T07:13:29.705Z,27.17
2022-12-05T07:15:56.667Z,23.73
2022-12-05T07:18:23.126Z,29.48
2022-12-05T07:21:11.699Z,28.73
2022-12-05T07:23:39.524Z,28.63
2022-12-05T07:26:07.658Z,22.65
2022-12-05T07:28:34.779Z,26.02
2022-12-05T07:31:01.998Z,22.92
2022-12-05T07:33:29.219Z,24.60
2022-12-05T07:36:04.477Z,22.48
2022-12-05T07:38:31.149Z,25.52
2022-12-05T07:40:58.519Z,23.50
2022-12-05T07:43:25.237Z,27.45
2022-12-05T07:45:51.916Z,25.08
2022-12-05T07:48:20.306Z,26.05
2022-12-05T07:50:46.772Z,28.35
2022-12-05T07:53:13.199Z,24.10
2022-12-05T07:55:39.541Z,22.17
2022-12-05T07:58:06.473Z,24.80
2022-12-05T08:00:32.857Z,21.92
2022-12-05T08:02:59.291Z,23.17
2022-12-05T08:05:25.777Z,24.08
2022-12-05T08:07:52.221Z,28.58
2022-12-05T08:10:18.605Z,28.33
2022-12-05T08:12:44.971Z,26.25
2022-12-05T08:15:11.494Z,23.77
2022-12-05T08:17:37.915Z,26.77
2022-12-05T08:20:04.855Z,26.25
2022-12-05T08:22:31.566Z,30.60
2022-12-05T08:24:58.108Z,23.23
2022-12-05T08:27:24.603Z,27.88
2022-12-05T08:29:51.074Z,34.35
2022-12-05T08:32:17.475Z,30.33
2022-12-05T08:34:43.840Z,27.50
2022-12-05T08:37:10.313Z,26.42
2022-12-05T08:39:38.768Z,28.63
2022-12-05T08:42:05.688Z,26.90
2022-12-05T08:44:32.023Z,25.48
2022-12-05T08:46:58.438Z,24.05
2022-12-05T08:49:24.812Z,27.15
2022-12-05T08:51:51.483Z,24.65
2022-12-05T08:54:17.837Z,24.88
2022-12-05T08:56:44.197Z,27.13
2022-12-05T08:59:10.885Z,26.17
2022-12-05T09:01:39.183Z,25.77
2022-12-05T09:04:06.572Z,33.72
2022-12-05T09:06:34.392Z,32.45
2022-12-05T09:09:04.571Z,28.85
2022-12-05T09:11:34.443Z,33.65
2022-12-05T09:14:01.595Z,31.08
2022-12-05T09:16:36.434Z,26.65
2022-12-05T09:19:10.761Z,29.77
2022-12-05T09:21:37.143Z,25.73
2022-12-05T09:24:03.657Z,31.90
2022-12-05T09:26:30.418Z,30.20
2022-12-05T09:28:57.516Z,27.92
2022-12-05T09:31:27.176Z,32.83
2022-12-05T09:33:54.183Z,33.80
2022-12-05T09:36:23.955Z,27.67
2022-12-05T09:38:51.363Z,27.70
2022-12-05T09:42:04.633Z,30.73
2022-12-05T09:44:37.161Z,27.33
2022-12-05T09:47:31.254Z,24.98
2022-12-05T09:50:18.349Z,31.30
2022-12-05T09:53:06.768Z,22.50
2022-12-05T09:55:53.256Z,28.70
2022-12-05T09:58:42.681Z,30.20
2022-12-05T10:01:31.197Z,29.02
2022-12-05T10:04:29.199Z,26.08
2022-12-05T10:07:07.215Z,24.02
2022-12-05T10:10:14.522Z,25.38
2022-12-05T10:13:03.433Z,26.08
2022-12-05T10:15:34.691Z,24.63
2022-12-05T10:18:08.920Z,26.15
2022-12-05T10:20:44.609Z,26.23
2022-12-05T10:23:59.776Z,23.77
2022-12-05T10:26:32.528Z,24.48
2022-12-05T10:29:17.422Z,28.60
2022-12-05T10:31:45.891Z,29.98
2022-12-05T10:34:18.757Z,27.15
2022-12-05T10:36:57.460Z,23.80
2022-12-05T10:39:24.129Z,27.00
2022-12-05T10:41:50.704Z,26.42
2022-12-05T10:44:17.189Z,28.40
2022-12-05T10:46:43.904Z,24.92
2022-12-05T10:49:12.334Z,25.02
2022-12-05T10:51:39.896Z,26.35
2022-12-05T10:54:17.508Z,26.83
2022-12-05T10:56:45.413Z,26.73
2022-12-05T10:59:17.632Z,26.80
2022-12-05T11:04:24.138Z,25.83
2022-12-05T11:07:02.293Z,21.70
2022-12-05T11:09:32.021Z,26.60
2022-12-05T11:12:27.144Z,29.23
2022-12-05T11:15:00.528Z,22.75
2022-12-05T11:17:35.571Z,23.85
2022-12-05T11:20:22.852Z,22.75
2022-12-05T11:22:54.495Z,23.13
2022-12-05T11:25:41.125Z,22.95
2022-12-05T11:28:32.229Z,19.10
2022-12-05T11:31:16.565Z,18.50
2022-12-05T11:33:43.058Z,24.15
2022-12-05T11:36:21.849Z,20.38
2022-12-05T11:38:48.503Z,21.10
2022-12-05T11:41:52.477Z,17.63
2022-12-05T11:44:18.913Z,22.95
2022-12-05T11:47:08.560Z,19.75
2022-12-05T11:49:44.282Z,20.05
2022-12-05T11:52:25.676Z,23.73
2022-12-05T11:55:14.070Z,20.85
2022-12-05T11:58:11.569Z,20.65
2022-12-05T12:00:50.551Z,20.90
2022-12-05T12:03:43.902Z,22.20
2022-12-05T12:06:16.556Z,20.58
2022-12-05T12:09:09.478Z,21.98
2022-12-05T12:12:00.712Z,16.75
2022-12-05T12:15:03.689Z,18.52
2022-12-05T12:17:46.167Z,17.75
2022-12-05T12:20:28.209Z,13.02
2022-12-05T12:23:05.776Z,19.75
2022-12-05T12:25:41.643Z,19.73
2022-12-05T12:28:11.332Z,20.58
2022-12-05T12:31:03.623Z,20.60
2022-12-05T12:33:44.569Z,16.90
2022-12-05T12:36:17.108Z,18.17
2022-12-05T12:38:58.883Z,18.42
2022-12-05T12:41:43.984Z,20.60
2022-12-05T12:44:31.656Z,20.33
2022-12-05T12:47:03.584Z,20.92
2022-12-05T12:49:55.086Z,22.20
2022-12-05T12:52:24.146Z,18.92
2022-12-05T12:55:13.970Z,18.45
2022-12-05T12:57:49.510Z,19.30
2022-12-05T13:00:36.821Z,17.25
2022-12-05T13:03:11.908Z,23.13
2022-12-05T13:05:46.788Z,24.75
2022-12-05T13:08:40.687Z,18.83
2022-12-05T13:11:10.935Z,18.85
2022-12-05T13:13:51.595Z,28.73
2022-12-05T13:16:29.109Z,22.20
2022-12-05T13:18:57.000Z,25.35
2022-12-05T13:21:24.622Z,21.65
2022-12-05T13:23:55.768Z,23.02
2022-12-05T13:26:23.840Z,28.52
2022-12-05T13:28:55.019Z,27.45
2022-12-05T13:31:42.619Z,25.40
2022-12-05T13:34:27.841Z,25.35
2022-12-05T13:37:15.571Z,27.25
2022-12-05T13:40:08.970Z,28.02
2022-12-05T13:42:37.458Z,24.80
2022-12-05T13:45:04.382Z,28.70
2022-12-05T13:47:36.898Z,27.30
2022-12-05T13:50:14.186Z,29.83
2022-12-05T13:52:49.238Z,26.33
2022-12-05T13:55:35.363Z,27.98
2022-12-05T13:58:20.600Z,25.15
2022-12-05T14:00:47.080Z,27.17
2022-12-05T14:03:39.393Z,30.80
2022-12-05T14:06:06.532Z,26.38
2022-12-05T14:08:37.509Z,26.50
2022-12-05T14:11:05.493Z,31.48
2022-12-05T14:13:33.753Z,29.38
2022-12-05T14:16:25.364Z,27.60
2022-12-05T14:19:06.802Z,30.10
2022-12-05T14:21:48.991Z,22.75
2022-12-05T14:24:38.463Z,24.70
2022-12-05T14:27:19.914Z,25.20
2022-12-05T14:30:25.453Z,31.40
2022-12-05T14:32:53.940Z,25.13
2022-12-05T14:35:31.667Z,25.33
2022-12-05T14:38:05.221Z,25.13
2022-12-05T14:40:43.893Z,23.85
2022-12-05T14:43:27.147Z,23.30
2022-12-05T14:48:19.820Z,23.65
2022-12-05T14:50:51.985Z,26.45
2022-12-05T14:53:25.432Z,24.00
2022-12-05T14:55:57.472Z,22.08
2022-12-05T14:58:35.806Z,22.83
2022-12-05T15:01:08.986Z,30.75
2022-12-05T15:03:39.628Z,21.38
2022-12-05T15:06:15.728Z,26.50
2022-12-05T15:08:47.908Z,21.40
2022-12-05T15:11:30.302Z,25.30
2022-12-05T15:14:05.392Z,18.58
2022-12-05T15:16:35.558Z,26.20
2022-12-05T15:19:09.201Z,27.33
2022-12-05T15:21:43.105Z,29.83
2022-12-05T15:24:15.227Z,28.92
2022-12-05T15:26:48.916Z,28.63
2022-12-05T15:29:28.143Z,31.08
2022-12-05T15:31:57.845Z,26.17
2022-12-05T15:34:39.896Z,23.38
2022-12-05T15:37:26.895Z,26.83
2022-12-05T15:39:57.867Z,26.15
2022-12-05T15:42:36.062Z,20.35
2022-12-05T15:45:12.195Z,27.05
2022-12-05T15:47:40.011Z,21.95
2022-12-05T15:50:12.450Z,21.33
2022-12-05T15:52:45.889Z,24.92
2022-12-05T15:55:20.556Z,24.75
2022-12-05T15:57:56.035Z,22.52
2022-12-05T16:00:25.991Z,22.17
2022-12-05T16:03:04.781Z,22.83
2022-12-05T16:05:39.124Z,24.98
2022-12-05T16:08:08.211Z,23.52
2022-12-05T16:10:35.771Z,23.45
2022-12-05T16:13:10.925Z,20.65
2022-12-05T16:15:37.446Z,23.98
2022-12-05T16:18:05.948Z,22.67
2022-12-05T16:20:36.915Z,26.88
2022-12-05T16:23:25.167Z,23.30
2022-12-05T16:25:52.150Z,21.73
2022-12-05T16:28:20.947Z,22.15
2022-12-05T16:30:59.670Z,25.38
2022-12-05T16:33:27.991Z,20.95
2022-12-05T16:35:54.379Z,27.95
2022-12-05T16:38:24.673Z,27.60
2022-12-05T16:41:16.975Z,20.52
2022-12-05T16:43:45.518Z,24.63
2022-12-05T16:46:12.892Z,24.23
2022-12-05T16:48:47.396Z,25.27
2022-12-05T16:51:13.914Z,22.85
2022-12-05T16:53:43.002Z,23.90
2022-12-05T16:56:19.881Z,27.83
2022-12-05T16:58:46.684Z,27.35
2022-12-05T17:01:21.801Z,19.95
2022-12-05T17:03:48.558Z,23.33
2022-12-05T17:06:15.899Z,24.83
2022-12-05T17:08:42.506Z,22.85
2022-12-05T17:11:19.390Z,19.45
2022-12-05T17:13:48.272Z,24.88
2022-12-05T17:16:18.668Z,24.02
2022-12-05T17:18:45.274Z,24.15
2022-12-05T17:21:16.577Z,22.58
2022-12-05T17:23:47.806Z,23.70
2022-12-05T17:26:17.532Z,26.20
2022-12-05T17:28:44.027Z,24.05
2022-12-05T17:31:14.563Z,26.27
2022-12-05T17:33:41.028Z,28.23
2022-12-05T17:36:07.689Z,26.65
2022-12-05T17:38:34.024Z,24.48
2022-12-05T17:41:05.485Z,27.05
2022-12-05T17:43:33.628Z,26.33
2022-12-05T17:46:01.136Z,23.77
2022-12-05T17:48:27.568Z,22.60
2022-12-05T17:50:57.530Z,29.92
2022-12-05T17:53:24.291Z,22.35
2022-12-05T17:55:51.266Z,22.60
2022-12-05T17:58:17.949Z,25.00
2022-12-05T18:00:45.009Z,22.92
2022-12-05T18:03:17.568Z,24.42
2022-12-05T18:08:11.960Z,22.52
2022-12-05T18:10:42.721Z,21.77
2022-12-05T18:13:09.863Z,25.50
2022-12-05T18:15:42.237Z,27.13
2022-12-05T18:20:39.859Z,19.50
2022-12-05T18:23:06.278Z,25.90
2022-12-05T18:25:32.785Z,23.52
2022-12-05T18:27:59.177Z,25.08
2022-12-05T18:30:25.607Z,21.67
2022-12-05T18:32:51.969Z,26.80
2022-12-05T18:35:39.863Z,22.65
2022-12-05T18:38:15.122Z,24.67
2022-12-05T18:40:41.505Z,19.35
2022-12-05T18:43:07.919Z,18.65
2022-12-05T18:45:34.336Z,20.63
2022-12-05T18:48:16.364Z,18.90
2022-12-05T18:50:47.233Z,17.33
2022-12-05T18:53:13.668Z,23.77
2022-12-05T18:58:26.484Z,10.70
2022-12-05T19:00:52.848Z,7.55
2022-12-05T19:03:19.256Z,10.75
2022-12-05T19:05:45.687Z,9.68
2022-12-05T19:08:12.082Z,10.20
2022-12-05T19:10:38.563Z,9.85
2022-12-05T19:13:04.978Z,8.05
2022-12-05T19:15:31.315Z,9.73
2022-12-05T19:17:57.670Z,8.02
2022-12-05T19:20:24.394Z,7.43
2022-12-05T19:22:54.106Z,6.78
2022-12-05T19:25:22.853Z,7.32
2022-12-05T19:27:49.214Z,6.60
2022-12-05T19:30:15.771Z,7.32
2022-12-05T19:32:42.108Z,6.32
2022-12-05T19:35:08.892Z,8.70
2022-12-05T19:37:35.856Z,8.40
2022-12-05T19:40:02.346Z,7.85
2022-12-05T19:42:29.571Z,7.43
2022-12-05T19:44:56.971Z,8.88
2022-12-05T19:47:23.683Z,7.07
2022-12-05T19:49:50.542Z,8.07
2022-12-05T19:52:18.215Z,7.57
2022-12-05T19:54:45.341Z,6.47
2022-12-05T19:57:13.085Z,6.55
2022-12-05T19:59:39.613Z,7.88
2022-12-05T20:02:06.326Z,6.65
2022-12-05T20:04:32.878Z,5.78
2022-12-05T20:06:59.523Z,5.25
2022-12-05T20:09:26.314Z,6.60
2022-12-05T20:11:55.574Z,7.47
2022-12-05T20:14:24.545Z,6.20
2022-12-05T20:16:51.388Z,6.07
2022-12-05T20:19:17.931Z,5.93
2022-12-05T20:21:44.604Z,7.55
2022-12-05T20:24:11.592Z,7.18
2022-12-05T20:26:42.152Z,6.53
2022-12-05T20:29:08.642Z,6.60
2022-12-05T20:31:37.640Z,5.80
2022-12-05T20:34:05.434Z,5.78
2022-12-05T20:36:33.060Z,7.20
2022-12-05T20:39:05.139Z,6.65
2022-12-05T20:41:31.984Z,7.70
2022-12-05T20:44:00.558Z,8.00
2022-12-05T20:46:28.810Z,8.55
2022-12-05T20:48:56.287Z,6.50
2022-12-05T20:51:31.213Z,7.00
2022-12-05T20:53:59.899Z,6.35
2022-12-05T20:56:28.995Z,6.40
2022-12-05T20:58:57.953Z,7.65
2022-12-05T21:01:25.910Z,8.85
2022-12-05T21:03:53.708Z,8.23
2022-12-05T21:06:23.588Z,7.75
2022-12-05T21:08:51.270Z,7.30
2022-12-05T21:11:18.129Z,10.02
2022-12-05T21:13:45.979Z,11.88
2022-12-05T21:16:19.016Z,8.80
2022-12-05T21:18:47.094Z,10.02
2022-12-05T21:21:17.667Z,8.70
2022-12-05T21:23:46.464Z,7.05
2022-12-05T21:26:17.501Z,6.53
2022-12-05T21:28:45.653Z,6.07
2022-12-05T21:31:16.783Z,6.65
2022-12-05T21:33:50.767Z,6.30
2022-12-05T21:36:18.848Z,6.68
2022-12-05T21:38:54.011Z,6.70
2022-12-05T21:41:22.845Z,6.55
2022-12-05T21:43:54.109Z,6.90
2022-12-05T21:46:22.177Z,6.57
2022-12-05T21:48:48.705Z,8.05
2022-12-05T21:51:15.668Z,7.55
2022-12-05T21:53:42.262Z,9.40
2022-12-05T21:56:17.338Z,10.52
2022-12-05T21:58:45.369Z,12.25
2022-12-05T22:01:20.057Z,7.97
2022-12-05T22:03:47.174Z,8.68
2022-12-05T22:06:16.990Z,9.50
2022-12-05T22:08:44.119Z,10.40
2022-12-05T22:11:16.891Z,9.68
2022-12-05T22:13:44.407Z,10.20
2022-12-05T22:16:12.602Z,9.85
2022-12-05T22:18:39.462Z,8.80
2022-12-05T22:21:13.092Z,12.68
2022-12-05T22:23:39.649Z,10.40
2022-12-05T22:26:09.028Z,8.95
2022-12-05T22:28:36.082Z,8.77
2022-12-05T22:31:05.381Z,8.05
2022-12-05T22:33:32.644Z,9.18
2022-12-05T22:36:00.707Z,10.30
2022-12-05T22:38:30.167Z,11.20
2022-12-05T22:40:58.827Z,9.30
2022-12-05T22:43:27.175Z,9.35
2022-12-05T22:45:53.823Z,9.40
2022-12-05T22:48:22.273Z,8.45
2022-12-05T22:50:54.089Z,8.98
2022-12-05T22:53:22.931Z,9.48
2022-12-05T22:55:49.840Z,9.70
2022-12-05T22:58:17.365Z,8.88
2022-12-05T23:00:44.300Z,7.70
2022-12-05T23:03:11.108Z,8.55
2022-12-05T23:05:42.347Z,7.70
2022-12-05T23:08:10.798Z,8.55
2022-12-05T23:10:39.126Z,7.00
2022-12-05T23:13:09.077Z,7.20
2022-12-05T23:15:38.599Z,5.78
2022-12-05T23:18:06.126Z,4.95
2022-12-05T23:20:33.094Z,5.10
2022-12-05T23:22:59.647Z,5.28
2022-12-05T23:25:26.374Z,4.35
2022-12-05T23:27:52.883Z,5.82
2022-12-05T23:30:19.323Z,3.40
2022-12-05T23:32:45.780Z,3.47
2022-12-05T23:35:13.321Z,3.25
2022-12-05T23:37:39.820Z,3.03
2022-12-05T23:40:06.834Z,2.95
2022-12-05T23:42:33.337Z,2.67
2022-12-05T23:44:59.842Z,2.70
2022-12-05T23:47:26.433Z,2.20
2022-12-05T23:49:52.822Z,3.50
2022-12-05T23:52:19.279Z,2.80
2022-12-05T23:54:45.610Z,2.25
2022-12-05T23:57:17.256Z,3.28
2022-12-05T23:59:44.132Z,2.43
